Time;durP1;ratioP1;P1;durP2;ratioP2;P2;SDS_P1;SDS_P2;PMS_P1;PMS_P2;Temp;Humidity;BMP_temperature;BMP_pressure;BME280_temperature;BME280_humidity;BME280_pressure;Samples;Min_cycle;Max_cycle;Signal;HPM_P1;HPM_P2
2021/12/10 00:00:27;;;;;;;1.42;0.80;;;8.00;99.90;;;;;;5049439;28;20045;-79
2021/12/10 00:02:54;;;;;;;1.50;0.95;;;8.00;99.90;;;;;;5025356;28;20098;-72
2021/12/10 00:05:28;;;;;;;1.65;1.15;;;8.10;99.90;;;;;;5045216;28;20049;-72
2021/12/10 00:07:55;;;;;;;1.70;1.17;;;8.10;99.90;;;;;;5039305;28;20059;-73
2021/12/10 00:10:25;;;;;;;2.08;1.30;;;8.10;99.90;;;;;;5049213;28;20057;-71
2021/12/10 00:12:52;;;;;;;1.77;1.23;;;8.10;99.90;;;;;;5044651;28;20052;-71
2021/12/10 00:15:28;;;;;;;0.82;0.77;;;8.10;99.90;;;;;;5047667;28;20254;-72
2021/12/10 00:17:56;;;;;;;3.25;0.90;;;8.10;99.90;;;;;;5031729;28;20052;-71
2021/12/10 00:20:24;;;;;;;1.00;0.80;;;8.10;99.90;;;;;;5049193;28;20483;-70
2021/12/10 00:23:01;;;;;;;1.70;1.17;;;8.10;99.90;;;;;;5047678;28;20399;-72
2021/12/10 00:25:35;;;;;;;0.85;0.70;;;8.20;99.90;;;;;;5049335;28;20049;-71
2021/12/10 00:28:17;;;;;;;1.90;1.00;;;8.20;99.90;;;;;;5047870;28;20051;-72
2021/12/10 00:34:26;;;;;;;1.50;1.10;;;8.30;99.90;;;;;;5017488;28;20103;-71
2021/12/10 00:36:55;;;;;;;1.80;1.10;;;8.30;99.90;;;;;;5045220;28;20497;-71
2021/12/10 00:39:28;;;;;;;2.78;1.60;;;8.30;99.90;;;;;;5050630;28;20397;-72
2021/12/10 00:41:59;;;;;;;2.92;1.35;;;8.30;99.90;;;;;;5016220;28;20072;-74
2021/12/10 00:44:26;;;;;;;3.10;1.70;;;8.30;99.90;;;;;;5047167;28;20485;-71
2021/12/10 00:46:54;;;;;;;2.97;1.77;;;8.40;99.90;;;;;;5048683;28;20053;-72
2021/12/10 00:49:22;;;;;;;3.78;1.83;;;8.40;99.90;;;;;;5054696;28;20093;-72
2021/12/10 00:51:52;;;;;;;2.42;2.00;;;8.40;99.90;;;;;;5049015;28;20045;-71
2021/12/10 00:54:20;;;;;;;3.67;2.00;;;8.40;99.90;;;;;;5050794;28;20107;-72
2021/12/10 00:56:47;;;;;;;3.28;2.30;;;8.40;99.90;;;;;;5052009;28;20049;-72
2021/12/10 00:59:17;;;;;;;4.20;2.63;;;8.40;99.90;;;;;;5034813;28;20056;-72
2021/12/10 01:01:44;;;;;;;3.72;2.85;;;8.40;99.90;;;;;;5051229;28;20048;-75
2021/12/10 01:04:26;;;;;;;3.05;2.72;;;8.40;99.90;;;;;;5061160;28;20424;-71
2021/12/10 01:06:54;;;;;;;5.22;3.42;;;8.40;99.90;;;;;;5019860;28;20041;-73
2021/12/10 01:09:30;;;;;;;4.18;3.75;;;8.40;99.90;;;;;;5035642;28;20097;-73
2021/12/10 01:12:13;;;;;;;6.13;4.18;;;8.40;99.90;;;;;;5041204;28;20057;-72
2021/12/10 01:15:04;;;;;;;6.40;3.63;;;8.40;99.90;;;;;;5063396;28;20412;-72
2021/12/10 01:26:09;;;;;;;8.35;4.60;;;8.30;99.90;;;;;;5043360;28;20512;-72
2021/12/10 01:28:38;;;;;;;6.30;4.88;;;8.30;99.90;;;;;;5046182;28;20057;-71
2021/12/10 01:31:06;;;;;;;6.57;4.50;;;8.30;99.90;;;;;;5050666;28;20068;-71
2021/12/10 01:33:36;;;;;;;4.80;4.07;;;8.30;99.90;;;;;;5052852;28;20143;-71
2021/12/10 01:36:07;;;;;;;7.35;4.20;;;8.30;99.90;;;;;;5051170;28;20048;-71
2021/12/10 01:38:35;;;;;;;6.32;4.45;;;8.20;99.90;;;;;;5050908;28;20123;-71
2021/12/10 01:41:06;;;;;;;6.03;4.22;;;8.20;99.90;;;;;;5034505;28;20069;-71
2021/12/10 01:43:35;;;;;;;5.13;4.50;;;8.20;99.90;;;;;;5051094;28;20503;-70
2021/12/10 01:46:07;;;;;;;6.10;4.38;;;8.20;99.90;;;;;;5031606;28;20052;-71
2021/12/10 01:48:37;;;;;;;6.22;4.63;;;8.20;99.90;;;;;;5050666;28;20087;-70
2021/12/10 01:51:04;;;;;;;5.35;4.57;;;8.20;99.90;;;;;;5018635;28;20076;-71
2021/12/10 01:53:33;;;;;;;8.05;5.78;;;8.10;99.90;;;;;;5050176;28;20040;-72
2021/12/10 01:56:01;;;;;;;5.82;4.53;;;8.10;99.90;;;;;;5050959;28;20103;-73
2021/12/10 01:58:29;;;;;;;6.18;4.18;;;8.10;99.90;;;;;;5049835;28;20436;-76
2021/12/10 02:01:03;;;;;;;4.35;3.90;;;8.00;99.90;;;;;;5034029;28;20505;-72
2021/12/10 02:03:30;;;;;;;4.38;3.67;;;8.00;99.90;;;;;;5049818;28;20041;-71
2021/12/10 02:05:58;;;;;;;6.40;4.10;;;8.00;99.90;;;;;;5050360;28;20041;-71
2021/12/10 02:08:25;;;;;;;6.63;3.85;;;7.90;99.90;;;;;;5049717;28;20059;-73
2021/12/10 02:10:52;;;;;;;5.43;3.53;;;7.90;99.90;;;;;;5034489;28;20138;-72
2021/12/10 02:13:19;;;;;;;11.60;4.55;;;7.90;99.90;;;;;;5050442;28;20053;-78
2021/12/10 02:15:46;;;;;;;5.65;3.88;;;7.90;99.90;;;;;;5050319;28;20132;-71
2021/12/10 02:18:13;;;;;;;4.85;3.40;;;7.80;99.90;;;;;;5050516;28;20048;-72
2021/12/10 02:21:02;;;;;;;5.75;3.20;;;7.80;99.90;;;;;;5049231;28;20055;-71
2021/12/10 02:23:32;;;;;;;5.90;3.58;;;7.80;99.90;;;;;;5045168;28;20075;-72
2021/12/10 02:26:03;;;;;;;6.65;3.13;;;7.80;99.90;;;;;;5050203;28;20056;-77
2021/12/10 02:28:30;;;;;;;4.05;2.45;;;7.80;99.90;;;;;;5049992;28;20049;-73
2021/12/10 02:30:57;;;;;;;5.50;3.28;;;7.80;99.90;;;;;;5051059;28;20476;-72
2021/12/10 02:33:24;;;;;;;2.95;2.10;;;7.80;99.90;;;;;;5050132;28;20446;-73
2021/12/10 02:35:51;;;;;;;3.20;2.05;;;7.80;99.90;;;;;;5050905;28;20078;-72
2021/12/10 02:38:20;;;;;;;5.38;2.55;;;7.70;99.90;;;;;;5032629;28;20115;-72
2021/12/10 02:40:48;;;;;;;3.90;2.08;;;7.70;99.90;;;;;;5049313;28;20489;-72
2021/12/10 02:43:16;;;;;;;4.45;1.80;;;7.70;99.90;;;;;;5050181;28;20100;-72
2021/12/10 02:45:44;;;;;;;3.58;1.83;;;7.60;99.90;;;;;;5048405;28;20128;-73
2021/12/10 02:48:11;;;;;;;3.33;2.10;;;7.60;99.90;;;;;;5049776;28;20598;-74
2021/12/10 02:50:38;;;;;;;4.40;2.15;;;7.60;99.90;;;;;;5031302;28;20164;-73
2021/12/10 02:53:06;;;;;;;4.63;2.28;;;7.50;99.90;;;;;;5049564;28;20053;-72
2021/12/10 02:55:33;;;;;;;3.35;1.60;;;7.50;99.90;;;;;;5015708;28;20095;-73
2021/12/10 02:58:05;;;;;;;3.30;1.67;;;7.50;99.90;;;;;;5050132;28;20048;-74
2021/12/10 03:00:45;;;;;;;3.30;2.03;;;7.50;99.90;;;;;;5050431;28;20063;-72
2021/12/10 03:03:12;;;;;;;2.70;1.73;;;7.50;99.90;;;;;;5038197;28;20123;-72
2021/12/10 03:05:39;;;;;;;6.68;1.85;;;7.50;99.90;;;;;;5049140;28;20037;-73
2021/12/10 03:08:06;;;;;;;3.50;2.05;;;7.50;99.90;;;;;;5049637;28;20048;-72
2021/12/10 03:10:33;;;;;;;4.68;1.67;;;7.40;99.90;;;;;;5049442;28;20075;-68
2021/12/10 03:13:03;;;;;;;5.45;1.83;;;7.40;99.90;;;;;;5045273;28;20061;-74
2021/12/10 03:15:32;;;;;;;3.10;1.80;;;7.40;99.90;;;;;;5048355;28;20943;-74
2021/12/10 03:18:00;;;;;;;4.75;1.88;;;7.30;99.90;;;;;;5027734;28;20056;-74
2021/12/10 03:20:29;;;;;;;3.85;1.80;;;7.30;99.90;;;;;;5045186;28;20044;-74
2021/12/10 03:22:57;;;;;;;4.88;1.98;;;7.30;99.90;;;;;;5047710;28;20152;-73
2021/12/10 03:25:24;;;;;;;4.20;2.00;;;7.30;99.90;;;;;;5047757;28;20091;-73
2021/12/10 03:27:51;;;;;;;10.00;2.00;;;7.20;99.90;;;;;;5030840;28;20139;-73
2021/12/10 03:30:24;;;;;;;8.75;2.55;;;7.20;99.90;;;;;;5049762;28;20041;-72
2021/12/10 03:32:51;;;;;;;4.88;2.58;;;7.10;99.90;;;;;;5050776;28;20044;-75
2021/12/10 03:35:26;;;;;;;6.53;2.17;;;7.10;99.90;;;;;;5048877;28;20056;-74
2021/12/10 03:37:53;;;;;;;4.30;2.20;;;7.00;99.90;;;;;;5046923;28;20037;-72
2021/12/10 03:40:20;;;;;;;5.72;2.40;;;7.10;99.90;;;;;;5050425;28;20198;-72
2021/12/10 03:42:49;;;;;;;9.55;3.08;;;7.00;99.90;;;;;;5050849;28;20087;-72
2021/12/10 03:45:17;;;;;;;10.50;2.55;;;7.00;99.90;;;;;;5049215;28;20048;-72
2021/12/10 03:47:44;;;;;;;5.40;2.78;;;7.00;99.90;;;;;;5049881;28;20051;-71
2021/12/10 03:50:13;;;;;;;8.75;2.40;;;7.00;99.90;;;;;;5050283;28;20045;-73
2021/12/10 03:52:40;;;;;;;7.43;2.05;;;7.00;99.90;;;;;;5032372;28;20132;-72
2021/12/10 03:55:07;;;;;;;10.05;2.50;;;6.90;99.90;;;;;;5048054;28;20140;-71
2021/12/10 03:57:34;;;;;;;10.98;2.78;;;6.90;99.90;;;;;;5028961;28;20119;-73
2021/12/10 04:00:02;;;;;;;10.70;2.90;;;6.80;99.90;;;;;;5045808;28;20045;-71
2021/12/10 04:02:30;;;;;;;7.93;3.38;;;6.80;99.90;;;;;;5048402;28;20045;-71
2021/12/10 04:04:57;;;;;;;13.85;3.53;;;6.80;99.90;;;;;;5050236;28;20129;-72
2021/12/10 04:07:25;;;;;;;10.15;4.18;;;6.80;99.90;;;;;;5032144;28;20061;-74
2021/12/10 04:09:52;;;;;;;10.70;3.65;;;6.70;99.90;;;;;;5048124;28;20049;-73
2021/12/10 04:12:19;;;;;;;18.08;3.75;;;6.80;99.90;;;;;;5049041;28;20048;-73
2021/12/10 04:14:47;;;;;;;8.75;3.70;;;6.80;99.90;;;;;;5046604;28;20037;-71
2021/12/10 04:17:14;;;;;;;11.77;3.13;;;6.80;99.90;;;;;;5031566;28;20059;-72
2021/12/10 04:19:41;;;;;;;10.00;3.20;;;6.80;99.90;;;;;;5050370;28;20049;-72
2021/12/10 04:22:08;;;;;;;10.98;3.47;;;6.80;99.90;;;;;;5048419;28;20472;-71
2021/12/10 04:24:36;;;;;;;12.05;3.15;;;6.80;99.90;;;;;;5024707;28;20497;-72
2021/12/10 04:27:04;;;;;;;19.02;5.57;;;6.80;99.90;;;;;;5046740;28;20047;-73
2021/12/10 04:29:31;;;;;;;12.63;3.30;;;6.70;99.90;;;;;;5048134;28;20049;-77
2021/12/10 04:32:00;;;;;;;8.98;3.45;;;6.70;99.90;;;;;;5047851;28;20057;-72
2021/12/10 04:34:27;;;;;;;22.90;4.90;;;6.70;99.90;;;;;;5049040;28;20140;-73
2021/12/10 04:36:55;;;;;;;10.88;4.00;;;6.70;99.90;;;;;;5048294;28;20049;-73
2021/12/10 04:39:22;;;;;;;16.67;4.18;;;6.70;99.90;;;;;;5047804;28;20041;-71
2021/12/10 04:41:49;;;;;;;12.30;4.35;;;6.60;99.90;;;;;;5049456;28;20107;-71
2021/12/10 04:44:16;;;;;;;10.88;3.47;;;6.60;99.90;;;;;;5048041;28;20052;-71
2021/12/10 04:46:43;;;;;;;17.27;4.40;;;6.60;99.90;;;;;;5047091;28;20824;-71
2021/12/10 04:49:12;;;;;;;17.73;4.43;;;6.60;99.90;;;;;;5047440;28;20492;-75
2021/12/10 04:51:41;;;;;;;11.77;3.00;;;6.60;99.90;;;;;;5047336;28;20052;-72
2021/12/10 04:54:08;;;;;;;14.18;4.93;;;6.60;99.90;;;;;;5048179;28;20051;-72
2021/12/10 04:56:37;;;;;;;11.18;4.13;;;6.60;99.90;;;;;;5009915;28;20076;-73
2021/12/10 04:59:05;;;;;;;10.90;3.20;;;6.60;99.90;;;;;;5047387;28;20461;-75
2021/12/10 05:01:32;;;;;;;11.45;3.17;;;6.60;99.90;;;;;;5047364;28;20041;-73
2021/12/10 05:04:00;;;;;;;14.07;3.55;;;6.60;99.90;;;;;;5047918;28;20500;-74
2021/12/10 05:06:27;;;;;;;12.80;3.13;;;6.60;99.90;;;;;;5049192;28;20536;-72
2021/12/10 05:08:54;;;;;;;24.25;5.38;;;6.60;99.90;;;;;;5026992;28;20041;-71
2021/12/10 05:11:21;;;;;;;13.63;3.08;;;6.60;99.90;;;;;;5047434;28;20045;-70
2021/12/10 05:13:48;;;;;;;12.95;3.30;;;6.60;99.90;;;;;;5031609;28;20058;-78
2021/12/10 05:16:15;;;;;;;12.63;4.13;;;6.60;99.90;;;;;;5048562;28;20049;-72
2021/12/10 05:18:45;;;;;;;8.35;3.15;;;6.60;99.90;;;;;;5048540;28;20063;-73
2021/12/10 05:21:12;;;;;;;;;;;6.60;99.90;;;;;;5047644;28;20116;-73
2021/12/10 05:23:39;;;;;;;8.00;3.05;;;6.60;99.90;;;;;;5049026;28;19928;-73
2021/12/10 05:26:07;;;;;;;13.80;3.75;;;6.50;99.90;;;;;;5048925;28;20048;-71
2021/12/10 05:28:34;;;;;;;12.88;3.65;;;6.60;99.90;;;;;;5044282;28;20051;-73
2021/12/10 05:31:02;;;;;;;14.45;3.00;;;6.60;99.90;;;;;;5046645;28;20041;-74
2021/12/10 05:33:29;;;;;;;9.65;2.70;;;6.50;99.90;;;;;;5048211;28;20053;-77
2021/12/10 05:36:01;;;;;;;13.85;2.97;;;6.50;99.90;;;;;;5048166;28;20048;-74
2021/12/10 05:38:28;;;;;;;12.30;2.78;;;6.50;99.90;;;;;;5035658;28;20049;-73
2021/12/10 05:40:56;;;;;;;12.05;2.47;;;6.40;99.90;;;;;;5050518;28;20044;-74
2021/12/10 05:43:23;;;;;;;8.27;2.28;;;6.40;99.90;;;;;;5051737;28;20037;-74
2021/12/10 05:45:51;;;;;;;12.77;3.17;;;6.40;99.40;;;;;;5050530;28;20041;-76
2021/12/10 05:48:18;;;;;;;12.60;2.78;;;6.40;99.90;;;;;;5051684;28;20052;-73
2021/12/10 05:50:46;;;;;;;10.70;2.80;;;6.40;99.90;;;;;;5050754;28;20081;-73
2021/12/10 05:53:13;;;;;;;12.75;3.13;;;6.40;98.70;;;;;;5050838;28;20056;-76
2021/12/10 05:55:40;;;;;;;8.32;2.92;;;6.40;99.90;;;;;;5049037;28;20445;-75
2021/12/10 05:58:07;;;;;;;8.57;2.28;;;6.40;99.90;;;;;;5047187;28;20428;-73
2021/12/10 06:00:47;;;;;;;7.05;1.98;;;6.30;99.90;;;;;;5051735;28;20055;-74
2021/12/10 06:03:14;;;;;;;9.07;3.45;;;6.30;99.90;;;;;;5047914;28;20045;-74
2021/12/10 06:05:42;;;;;;;13.60;3.90;;;6.30;99.70;;;;;;5050675;28;20059;-73
2021/12/10 06:08:09;;;;;;;15.07;3.13;;;6.30;99.90;;;;;;5047687;28;20120;-77
2021/12/10 06:10:36;;;;;;;9.05;3.20;;;6.30;99.60;;;;;;5013259;28;20057;-72
2021/12/10 06:13:03;;;;;;;13.90;2.60;;;6.30;99.90;;;;;;5050967;28;20124;-72
2021/12/10 06:15:30;;;;;;;7.18;2.20;;;6.30;99.10;;;;;;5052000;28;20186;-72
2021/12/10 06:17:57;;;;;;;13.20;2.85;;;6.30;99.90;;;;;;5050934;28;20048;-72
2021/12/10 06:20:27;;;;;;;11.20;3.20;;;6.20;99.40;;;;;;5033625;28;20053;-72
2021/12/10 06:22:54;;;;;;;15.95;3.63;;;6.20;99.70;;;;;;5052322;28;20487;-72
2021/12/10 06:25:21;;;;;;;11.20;2.47;;;6.10;99.90;;;;;;5050749;28;20404;-75
2021/12/10 06:27:49;;;;;;;15.00;2.30;;;6.20;99.20;;;;;;5052373;28;20049;-73
2021/12/10 06:30:22;;;;;;;12.88;2.08;;;6.10;99.80;;;;;;5049610;28;20139;-72
2021/12/10 06:32:50;;;;;;;11.70;2.35;;;6.10;99.50;;;;;;5050075;28;20052;-78
2021/12/10 06:35:17;;;;;;;13.00;3.35;;;6.00;99.90;;;;;;5050435;28;20044;-71
2021/12/10 06:37:44;;;;;;;14.18;3.35;;;6.10;99.90;;;;;;5033349;28;20048;-71
2021/12/10 06:40:14;;;;;;;6.93;2.17;;;6.00;99.90;;;;;;5050449;28;20089;-72
2021/12/10 06:42:41;;;;;;;12.77;2.75;;;6.00;99.50;;;;;;5033592;28;20049;-74
2021/12/10 06:45:12;;;;;;;12.18;2.47;;;5.90;99.90;;;;;;5050532;28;20958;-71
2021/12/10 06:47:40;;;;;;;11.02;2.95;;;5.90;99.90;;;;;;5049403;28;20159;-72
2021/12/10 06:50:09;;;;;;;14.23;2.47;;;5.90;99.90;;;;;;5050121;28;20116;-72
2021/12/10 06:52:36;;;;;;;7.82;2.75;;;5.90;99.90;;;;;;5050090;28;20072;-73
2021/12/10 06:55:04;;;;;;;7.18;2.63;;;5.80;99.90;;;;;;5049586;28;20129;-72
2021/12/10 06:57:31;;;;;;;10.90;2.53;;;5.80;99.90;;;;;;5032862;28;20079;-73
2021/12/10 06:59:58;;;;;;;13.10;2.42;;;5.80;99.90;;;;;;5050931;28;20052;-72
2021/12/10 07:02:25;;;;;;;13.48;2.40;;;5.80;99.90;;;;;;5049646;28;20411;-72
2021/12/10 07:04:52;;;;;;;8.48;1.98;;;5.70;99.90;;;;;;5051204;28;20077;-73
2021/12/10 07:07:19;;;;;;;10.13;3.03;;;5.70;99.90;;;;;;5049957;28;20049;-74
2021/12/10 07:09:46;;;;;;;12.10;2.53;;;5.70;99.90;;;;;;5049511;28;20056;-73
2021/12/10 07:12:13;;;;;;;13.70;4.15;;;5.70;99.90;;;;;;5049689;28;20114;-73
2021/12/10 07:14:40;;;;;;;7.45;3.13;;;5.70;99.90;;;;;;5048947;28;20503;-73
2021/12/10 07:17:07;;;;;;;6.22;2.10;;;5.70;99.90;;;;;;5050846;28;20048;-73
2021/12/10 07:19:36;;;;;;;12.32;3.42;;;5.70;99.90;;;;;;5049122;28;20055;-75
2021/12/10 07:22:03;;;;;;;69.22;40.03;;;5.70;99.90;;;;;;5049156;28;20460;-70
2021/12/10 07:24:30;;;;;;;36.55;21.10;;;5.70;99.90;;;;;;5049053;28;20386;-70
2021/12/10 07:26:59;;;;;;;8.45;3.60;;;5.70;99.90;;;;;;5051041;28;20044;-70
2021/12/10 07:29:26;;;;;;;6.25;2.40;;;5.70;99.90;;;;;;5049234;28;20063;-70
2021/12/10 07:31:53;;;;;;;9.55;2.15;;;5.60;99.90;;;;;;5049513;28;20163;-69
2021/12/10 07:34:20;;;;;;;11.73;2.10;;;5.60;99.50;;;;;;5032209;28;20493;-66
2021/12/10 07:36:50;;;;;;;13.90;2.50;;;5.60;99.90;;;;;;5049877;28;20168;-68
2021/12/10 07:39:17;;;;;;;;;;;5.60;99.70;;;;;;5047660;28;20049;-67
2021/12/10 07:41:44;;;;;;;83.47;53.65;;;5.60;99.90;;;;;;5048972;28;19927;-64
2021/12/10 07:44:11;;;;;;;72.15;44.30;;;5.60;99.90;;;;;;5047787;28;20063;-68
2021/12/10 07:46:40;;;;;;;12.50;2.90;;;5.60;99.90;;;;;;5030667;28;20072;-69
2021/12/10 07:49:14;;;;;;;9.87;2.73;;;5.50;99.90;;;;;;5032808;28;20132;-71
2021/12/10 07:51:42;;;;;;;7.18;2.50;;;5.50;99.90;;;;;;5049006;28;20052;-68
2021/12/10 07:54:10;;;;;;;16.25;2.35;;;5.50;99.90;;;;;;5040059;28;20131;-67
2021/12/10 07:56:37;;;;;;;11.88;2.45;;;5.40;99.90;;;;;;5052905;28;20059;-68
2021/12/10 07:59:04;;;;;;;9.63;3.13;;;5.40;99.80;;;;;;5057343;28;20429;-67
2021/12/10 08:01:32;;;;;;;10.82;2.90;;;5.40;99.90;;;;;;5049264;28;20132;-70
2021/12/10 08:04:01;;;;;;;15.32;3.10;;;5.40;99.90;;;;;;5049603;28;20072;-70
2021/12/10 08:06:29;;;;;;;18.27;3.65;;;5.40;99.30;;;;;;5048860;28;20041;-67
2021/12/10 08:08:57;;;;;;;10.30;2.37;;;5.30;99.50;;;;;;5047802;28;20443;-67
2021/12/10 08:11:26;;;;;;;11.63;2.40;;;5.30;99.90;;;;;;5044074;28;20416;-70
2021/12/10 08:13:53;;;;;;;8.35;3.58;;;5.30;99.90;;;;;;5044922;28;20183;-69
2021/12/10 08:16:23;;;;;;;7.22;2.28;;;5.30;99.90;;;;;;5045468;28;20515;-65
2021/12/10 08:18:52;;;;;;;12.70;2.80;;;5.20;99.90;;;;;;5048121;28;20552;-66
2021/12/10 08:21:20;;;;;;;13.98;3.03;;;5.20;99.90;;;;;;5050491;28;20404;-66
2021/12/10 08:23:50;;;;;;;10.85;3.03;;;5.20;99.90;;;;;;5013441;28;20132;-65
2021/12/10 08:26:17;;;;;;;13.23;2.35;;;5.20;99.90;;;;;;5031949;28;20052;-62
2021/12/10 08:28:45;;;;;;;11.52;2.50;;;5.20;99.90;;;;;;5049099;28;20056;-65
2021/12/10 08:31:15;;;;;;;10.35;2.03;;;5.10;99.90;;;;;;5045690;28;20053;-64
2021/12/10 08:33:47;;;;;;;10.20;3.10;;;5.10;99.90;;;;;;5051231;28;20056;-65
2021/12/10 08:36:16;;;;;;;12.73;5.97;;;5.10;99.90;;;;;;5032549;28;20408;-64
2021/12/10 08:38:43;;;;;;;13.13;3.50;;;5.10;99.90;;;;;;5036412;28;20132;-66
2021/12/10 08:41:16;;;;;;;8.65;3.20;;;5.10;99.90;;;;;;5032787;28;20049;-65
2021/12/10 08:43:44;;;;;;;10.27;2.15;;;5.10;99.90;;;;;;5049320;28;20139;-65
2021/12/10 08:46:11;;;;;;;55.70;37.47;;;5.10;99.90;;;;;;5040710;28;20044;-64
2021/12/10 08:48:38;;;;;;;85.05;54.72;;;5.10;99.90;;;;;;5039146;28;20052;-63
2021/12/10 08:51:12;;;;;;;19.83;9.15;;;5.10;99.90;;;;;;5046967;28;20056;-64
2021/12/10 08:53:41;;;;;;;15.52;4.32;;;5.10;99.90;;;;;;5050538;28;20059;-66
2021/12/10 08:56:08;;;;;;;16.60;4.18;;;5.10;99.90;;;;;;5029179;28;20061;-71
2021/12/10 08:58:35;;;;;;;10.07;2.25;;;5.20;99.90;;;;;;5035952;28;20110;-69
2021/12/10 09:01:09;;;;;;;9.65;2.78;;;5.10;99.90;;;;;;5048799;28;20045;-69
2021/12/10 09:04:01;;;;;;;15.85;3.72;;;5.20;99.90;;;;;;5030245;28;20041;-69
2021/12/10 09:06:30;;;;;;;8.27;2.20;;;5.20;99.90;;;;;;5049576;28;20533;-71
2021/12/10 09:08:58;;;;;;;15.13;2.75;;;5.20;99.90;;;;;;5049132;28;20451;-69
2021/12/10 09:11:25;;;;;;;10.43;2.63;;;5.30;99.90;;;;;;5048067;28;20072;-77
2021/12/10 09:14:13;;;;;;;10.85;3.33;;;5.30;99.90;;;;;;5051137;28;20041;-65
2021/12/10 09:16:40;;;;;;;9.38;2.40;;;5.40;99.90;;;;;;5049937;28;20124;-68
2021/12/10 09:19:11;;;;;;;11.27;2.60;;;5.40;99.90;;;;;;5051735;28;20053;-72
2021/12/10 09:21:39;;;;;;;9.13;2.13;;;5.40;99.90;;;;;;5051120;28;20076;-73
2021/12/10 09:24:07;;;;;;;13.57;2.90;;;5.40;99.90;;;;;;5052216;28;20049;-67
2021/12/10 09:26:36;;;;;;;10.20;3.95;;;5.40;99.90;;;;;;5052533;28;20140;-67
2021/12/10 09:29:04;;;;;;;10.70;2.63;;;5.40;99.90;;;;;;5052405;28;20163;-67
2021/12/10 09:31:31;;;;;;;9.02;3.15;;;5.40;99.90;;;;;;5030104;28;20059;-66
2021/12/10 09:33:59;;;;;;;8.02;2.22;;;5.40;99.90;;;;;;5050591;28;20059;-66
2021/12/10 09:36:26;;;;;;;10.60;2.78;;;5.40;99.90;;;;;;5053079;28;20132;-66
2021/12/10 09:38:53;;;;;;;7.70;2.30;;;5.50;99.80;;;;;;5052350;28;20040;-66
2021/12/10 09:41:20;;;;;;;6.95;2.50;;;5.50;99.90;;;;;;5051365;28;20548;-71
2021/12/10 09:43:47;;;;;;;6.03;2.42;;;5.60;99.90;;;;;;5050537;28;20488;-76
2021/12/10 09:46:14;;;;;;;14.65;2.72;;;5.60;99.90;;;;;;5052468;28;20067;-69
2021/12/10 09:48:42;;;;;;;10.45;3.35;;;5.60;99.40;;;;;;5015095;28;20132;-70
2021/12/10 09:51:15;;;;;;;6.00;2.30;;;5.60;99.70;;;;;;5049847;28;20124;-72
2021/12/10 09:53:47;;;;;;;14.07;3.05;;;5.60;99.90;;;;;;5020913;28;20041;-70
2021/12/10 09:56:15;;;;;;;8.50;2.42;;;5.60;99.20;;;;;;5051592;28;20083;-71
2021/12/10 09:58:48;;;;;;;7.57;2.92;;;5.60;99.70;;;;;;5030399;28;20502;-73
2021/12/10 10:01:32;;;;;;;12.50;3.20;;;5.60;99.70;;;;;;5034779;28;20048;-69
2021/12/10 10:04:04;;;;;;;7.07;3.25;;;5.60;99.90;;;;;;5036880;28;20052;-70
2021/12/10 10:06:37;;;;;;;11.88;2.80;;;5.60;98.70;;;;;;5051113;28;20472;-71
2021/12/10 10:09:07;;;;;;;8.45;2.42;;;5.60;99.50;;;;;;5050966;28;20386;-72
2021/12/10 10:11:41;;;;;;;10.70;2.40;;;5.70;99.80;;;;;;5051346;28;20045;-70
2021/12/10 10:14:08;;;;;;;8.73;2.15;;;5.70;98.70;;;;;;5034289;28;20131;-69
2021/12/10 10:16:35;;;;;;;7.20;2.47;;;5.70;98.70;;;;;;5050059;28;20526;-66
2021/12/10 10:19:05;;;;;;;8.85;2.10;;;5.70;97.90;;;;;;5049688;28;20041;-70
2021/12/10 10:21:35;;;;;;;14.02;3.90;;;5.70;97.60;;;;;;5033655;28;20524;-70
2021/12/10 10:24:03;;;;;;;8.13;2.47;;;5.70;98.00;;;;;;5048010;28;20044;-70
2021/12/10 10:26:45;;;;;;;9.50;2.35;;;5.70;97.70;;;;;;5034714;28;20132;-70
2021/12/10 10:29:14;;;;;;;5.00;2.13;;;5.80;97.10;;;;;;5050865;28;20166;-70
2021/12/10 10:31:46;;;;;;;8.65;2.47;;;5.80;99.30;;;;;;5017230;28;20132;-70
2021/12/10 10:34:13;;;;;;;6.15;2.03;;;5.90;97.30;;;;;;5018330;28;20052;-70
2021/12/10 10:36:40;;;;;;;9.60;2.40;;;6.00;96.10;;;;;;5031015;28;20489;-73
2021/12/10 10:39:32;;;;;;;12.00;2.72;;;6.00;97.00;;;;;;5032246;28;20144;-70
2021/12/10 10:42:00;;;;;;;9.98;2.75;;;6.10;97.40;;;;;;5019055;28;20511;-69
2021/12/10 10:44:47;;;;;;;11.75;3.92;;;6.10;96.20;;;;;;5050959;28;20061;-70
2021/12/10 10:47:22;;;;;;;13.57;4.28;;;6.10;95.30;;;;;;5052167;28;20052;-70
2021/12/10 10:49:52;;;;;;;8.77;2.50;;;6.10;96.60;;;;;;5050287;28;20100;-70
2021/12/10 10:52:28;;;;;;;5.00;2.03;;;6.10;97.00;;;;;;5017542;28;20560;-69
2021/12/10 10:55:37;;;;;;;13.70;2.65;;;6.10;96.30;;;;;;5049814;28;20044;-69
2021/12/10 10:58:14;;;;;;;6.30;2.78;;;6.20;95.50;;;;;;5034376;28;20128;-70
2021/12/10 11:00:59;;;;;;;8.80;3.05;;;6.20;95.90;;;;;;5037154;28;20041;-69
2021/12/10 11:04:13;;;;;;;9.35;2.45;;;6.20;96.30;;;;;;5051154;28;20831;-72
2021/12/10 11:06:45;;;;;;;9.45;3.90;;;6.20;94.60;;;;;;5049837;28;20068;-69
2021/12/10 11:09:15;;;;;;;11.07;3.35;;;6.20;94.90;;;;;;5049814;28;20057;-70
2021/12/10 11:11:55;;;;;;;8.50;2.55;;;6.30;95.00;;;;;;5049607;28;20069;-70
2021/12/10 11:14:36;;;;;;;8.93;2.28;;;6.30;96.10;;;;;;5050216;28;20107;-69
2021/12/10 11:17:30;;;;;;;10.57;2.85;;;6.30;94.70;;;;;;5050153;28;20055;-69
2021/12/10 11:20:09;;;;;;;8.90;2.45;;;6.30;95.70;;;;;;5048426;28;20048;-70
2021/12/10 11:23:06;;;;;;;7.82;2.80;;;6.30;94.20;;;;;;5068797;28;20055;-69
2021/12/10 11:25:40;;;;;;;8.40;2.47;;;6.40;94.90;;;;;;5061691;28;20110;-69
2021/12/10 11:28:13;;;;;;;8.55;2.53;;;6.40;94.10;;;;;;5043374;28;20054;-68
2021/12/10 11:30:44;;;;;;;8.18;2.55;;;6.50;94.50;;;;;;5027877;28;20091;-69
2021/12/10 11:33:23;;;;;;;8.90;2.22;;;6.50;94.70;;;;;;5051530;28;20049;-69
2021/12/10 11:35:56;;;;;;;8.82;2.08;;;6.50;94.50;;;;;;5051690;28;20056;-68
2021/12/10 11:38:31;;;;;;;11.25;2.95;;;6.50;94.10;;;;;;5061634;28;20052;-69
2021/12/10 11:41:00;;;;;;;8.20;2.50;;;6.50;94.10;;;;;;5070259;28;20049;-68
2021/12/10 11:44:06;;;;;;;7.80;2.60;;;6.50;94.10;;;;;;5070908;28;20067;-69
2021/12/10 11:49:39;;;;;;;12.55;4.05;;;6.60;92.30;;;;;;5068148;28;20474;-68
2021/12/10 11:52:12;;;;;;;7.22;2.28;;;6.60;93.20;;;;;;5056173;28;20044;-74
2021/12/10 11:55:10;;;;;;;19.33;8.05;;;6.70;93.80;;;;;;5051404;28;20140;-69
2021/12/10 11:57:41;;;;;;;7.07;2.55;;;6.70;93.70;;;;;;5039584;28;20457;-70
2021/12/10 12:00:15;;;;;;;5.75;2.22;;;6.70;92.90;;;;;;5046912;28;20048;-71
2021/12/10 12:03:00;;;;;;;53.95;30.02;;;6.80;93.70;;;;;;5031711;28;20131;-69
2021/12/10 12:05:43;;;;;;;9.70;3.40;;;6.90;92.30;;;;;;5035788;28;20057;-76
2021/12/10 12:08:25;;;;;;;14.57;3.13;;;6.90;91.50;;;;;;5048234;28;20095;-69
2021/12/10 12:10:55;;;;;;;7.13;2.38;;;6.90;91.20;;;;;;5049334;28;20492;-73
2021/12/10 12:13:53;;;;;;;9.18;1.92;;;6.90;91.40;;;;;;5048985;28;20068;-72
2021/12/10 12:16:24;;;;;;;8.00;2.20;;;6.90;91.00;;;;;;5044204;28;20040;-70
2021/12/10 12:18:58;;;;;;;11.30;2.42;;;6.90;91.60;;;;;;5048704;28;20037;-70
2021/12/10 12:27:14;;;;;;;10.93;2.75;;;7.00;91.40;;;;;;5057597;28;20046;-79
2021/12/10 12:30:06;;;;;;;11.77;2.80;;;7.10;90.60;;;;;;5056668;28;20045;-63
2021/12/10 12:32:53;;;;;;;7.53;2.70;;;7.10;91.60;;;;;;5054679;28;20052;-69
2021/12/10 12:35:24;;;;;;;7.78;2.38;;;7.10;90.90;;;;;;5060122;28;20508;-66
2021/12/10 12:37:51;;;;;;;9.93;2.95;;;7.10;91.00;;;;;;5048747;28;20049;-63
2021/12/10 12:40:38;;;;;;;9.20;2.50;;;7.00;91.70;;;;;;5034989;28;20053;-64
2021/12/10 12:43:06;;;;;;;6.30;2.17;;;7.00;90.20;;;;;;5048348;28;20057;-65
2021/12/10 12:45:46;;;;;;;6.53;2.08;;;7.00;90.80;;;;;;5033051;28;20480;-71
2021/12/10 12:48:25;;;;;;;9.05;2.45;;;7.00;90.80;;;;;;5059028;28;20044;-65
2021/12/10 12:50:55;;;;;;;6.88;2.08;;;7.10;90.90;;;;;;5051955;28;20155;-65
2021/12/10 12:53:25;;;;;;;6.75;3.17;;;7.10;90.80;;;;;;5060744;28;20045;-63
2021/12/10 12:56:14;;;;;;;20.35;13.57;;;7.10;91.00;;;;;;5059284;28;20118;-63
2021/12/10 12:59:10;;;;;;;206.07;151.45;;;7.10;90.80;;;;;;5029350;28;20472;-64
2021/12/10 13:01:43;;;;;;;12.05;3.38;;;7.10;91.80;;;;;;5051825;28;20072;-66
2021/12/10 13:04:19;;;;;;;11.85;2.42;;;7.10;90.90;;;;;;5051916;28;20048;-74
2021/12/10 13:07:11;;;;;;;5.93;2.17;;;7.00;91.60;;;;;;5034650;28;20053;-64
2021/12/10 13:09:49;;;;;;;8.88;2.53;;;7.00;89.40;;;;;;5051969;28;20052;-64
2021/12/10 13:13:07;;;;;;;7.78;2.40;;;7.00;90.10;;;;;;5052577;28;20057;-65
2021/12/10 13:15:34;;;;;;;4.75;2.17;;;6.90;90.70;;;;;;5052359;28;20075;-65
2021/12/10 13:18:05;;;;;;;5.72;2.03;;;6.90;91.20;;;;;;5034872;28;20045;-66
2021/12/10 13:20:40;;;;;;;9.65;2.67;;;6.90;91.60;;;;;;5051851;28;20456;-64
2021/12/10 13:23:10;;;;;;;7.13;2.10;;;6.90;90.80;;;;;;5035846;28;20053;-65
2021/12/10 13:25:37;;;;;;;6.93;3.05;;;7.00;91.40;;;;;;5031521;28;20397;-63
2021/12/10 13:28:04;;;;;;;6.05;2.30;;;7.00;91.90;;;;;;5030399;28;20045;-67
2021/12/10 13:30:42;;;;;;;13.07;5.70;;;7.10;91.20;;;;;;5033177;28;20120;-66
2021/12/10 13:33:10;;;;;;;9.50;2.65;;;7.10;90.50;;;;;;5044056;28;20382;-64